Time;durP1;ratioP1;P1;durP2;ratioP2;P2;SDS_P1;SDS_P2;PMS_P1;PMS_P2;Temp;Humidity;BMP_temperature;BMP_pressure;BME280_temperature;BME280_humidity;BME280_pressure;Samples;Min_cycle;Max_cycle;Signal;HPM_P1;HPM_P2
2023/05/10 00:01:53;;;;;;;27.75;25.73;;;11.80;99.90;;;;;;5226940;28;20028;-73
2023/05/10 00:04:27;;;;;;;28.08;25.85;;;11.80;99.90;;;;;;5227646;28;20419;-74
2023/05/10 00:06:58;;;;;;;26.30;24.50;;;11.90;99.90;;;;;;5228271;28;20025;-73
2023/05/10 00:09:28;;;;;;;24.98;23.20;;;11.80;99.90;;;;;;5227868;28;20049;-73
2023/05/10 00:11:59;;;;;;;25.58;23.77;;;11.80;99.90;;;;;;5227915;28;20025;-73
2023/05/10 00:14:30;;;;;;;25.55;23.65;;;11.70;99.90;;;;;;5227502;28;20040;-75
2023/05/10 00:17:01;;;;;;;26.95;24.55;;;11.70;99.90;;;;;;5227428;28;20029;-73
2023/05/10 00:19:32;;;;;;;26.90;24.70;;;11.70;99.90;;;;;;5227474;28;20021;-73
2023/05/10 00:22:03;;;;;;;24.92;22.70;;;11.60;99.90;;;;;;5226449;28;20025;-73
2023/05/10 00:24:34;;;;;;;25.38;23.15;;;11.80;99.90;;;;;;5227664;28;20048;-74
2023/05/10 00:27:05;;;;;;;24.30;22.20;;;11.60;99.90;;;;;;5226198;28;20029;-75
2023/05/10 00:29:36;;;;;;;27.33;24.95;;;11.60;99.90;;;;;;5227368;28;20491;-75
2023/05/10 00:32:06;;;;;;;27.42;25.13;;;11.70;99.90;;;;;;5227451;28;20017;-73
2023/05/10 00:34:37;;;;;;;27.27;25.13;;;11.70;99.90;;;;;;5227105;28;20056;-73
2023/05/10 00:37:08;;;;;;;26.55;24.27;;;11.80;99.90;;;;;;5227134;28;20488;-74
2023/05/10 00:39:39;;;;;;;28.05;25.80;;;11.70;99.90;;;;;;5227203;28;20045;-76
2023/05/10 00:42:10;;;;;;;29.05;26.52;;;11.70;99.90;;;;;;5227082;28;20717;-74
2023/05/10 00:44:41;;;;;;;28.65;26.17;;;11.70;99.90;;;;;;5227171;28;20062;-76
2023/05/10 00:47:12;;;;;;;28.15;25.85;;;11.70;99.90;;;;;;5226978;28;20021;-72
2023/05/10 00:49:44;;;;;;;28.30;26.20;;;11.70;99.90;;;;;;5226896;28;20369;-73
2023/05/10 00:52:15;;;;;;;26.20;23.95;;;11.70;99.90;;;;;;5227012;28;20354;-74
2023/05/10 00:54:47;;;;;;;26.30;24.38;;;11.70;99.90;;;;;;5225794;28;20400;-74
2023/05/10 00:57:18;;;;;;;27.73;25.38;;;11.70;99.90;;;;;;5225607;28;20044;-73
2023/05/10 00:59:49;;;;;;;28.55;26.38;;;11.70;99.90;;;;;;5227133;28;20028;-74
2023/05/10 01:02:20;;;;;;;24.15;22.33;;;11.70;99.90;;;;;;5226488;28;20032;-74
2023/05/10 01:04:51;;;;;;;26.23;24.02;;;11.70;99.90;;;;;;5226755;28;20030;-75
2023/05/10 01:07:23;;;;;;;28.40;26.00;;;11.70;99.90;;;;;;5225073;28;20400;-73
2023/05/10 01:09:54;;;;;;;27.98;25.75;;;11.80;99.90;;;;;;5225336;28;20397;-74
2023/05/10 01:12:25;;;;;;;25.40;23.42;;;11.60;99.90;;;;;;5225809;28;20068;-75
2023/05/10 01:14:57;;;;;;;26.38;24.63;;;11.70;99.90;;;;;;5226541;28;20040;-73
2023/05/10 01:17:28;;;;;;;26.35;24.27;;;11.70;99.90;;;;;;5226268;28;20092;-73
2023/05/10 01:19:59;;;;;;;24.17;22.05;;;11.70;99.90;;;;;;5226634;28;20380;-73
2023/05/10 01:22:57;;;;;;;28.10;26.08;;;11.60;99.90;;;;;;5226267;28;20104;-74
2023/05/10 01:25:36;;;;;;;26.55;24.70;;;11.80;99.90;;;;;;5226356;28;20040;-73
2023/05/10 01:28:17;;;;;;;28.20;25.75;;;11.70;99.90;;;;;;5226740;28;20051;-74
2023/05/10 01:31:00;;;;;;;27.88;25.75;;;11.70;99.90;;;;;;5225104;28;20032;-73
2023/05/10 01:33:47;;;;;;;25.20;23.15;;;11.70;99.90;;;;;;5224967;28;20598;-73
2023/05/10 01:37:00;;;;;;;23.58;21.98;;;11.60;99.90;;;;;;5226107;28;20461;-73
2023/05/10 01:39:42;;;;;;;24.20;22.30;;;11.70;99.90;;;;;;5224743;28;20044;-73
2023/05/10 01:42:36;;;;;;;22.98;21.38;;;11.60;99.90;;;;;;5226288;28;20068;-74
2023/05/10 01:45:10;;;;;;;21.23;19.75;;;11.50;99.90;;;;;;5226025;28;20033;-73
2023/05/10 01:47:55;;;;;;;22.75;21.02;;;11.70;99.90;;;;;;5226110;28;20013;-73
2023/05/10 01:50:29;;;;;;;23.00;21.40;;;11.60;99.90;;;;;;5226049;28;20086;-73
2023/05/10 01:53:02;;;;;;;23.95;22.27;;;11.60;99.90;;;;;;5225804;28;20552;-74
2023/05/10 01:55:55;;;;;;;22.83;21.35;;;11.60;99.90;;;;;;5225999;28;20033;-75
2023/05/10 01:58:30;;;;;;;22.77;21.23;;;11.60;99.90;;;;;;5226107;28;20035;-72
2023/05/10 02:01:04;;;;;;;23.52;21.50;;;11.60;99.90;;;;;;5224649;28;20381;-73
2023/05/10 02:03:36;;;;;;;24.02;22.33;;;11.70;99.90;;;;;;5225815;28;20102;-75
2023/05/10 02:06:09;;;;;;;22.88;21.27;;;11.60;99.90;;;;;;5226238;28;20160;-73
2023/05/10 02:08:41;;;;;;;23.15;21.42;;;11.60;99.90;;;;;;5225827;28;20569;-75
2023/05/10 02:11:13;;;;;;;21.02;19.45;;;11.70;99.90;;;;;;5225771;28;20024;-73
2023/05/10 02:13:47;;;;;;;23.27;21.88;;;11.50;99.90;;;;;;5225728;28;20045;-75
2023/05/10 02:16:20;;;;;;;22.98;21.38;;;11.60;99.90;;;;;;5225928;28;20104;-73
2023/05/10 02:18:52;;;;;;;19.63;18.27;;;11.60;99.90;;;;;;5225758;28;20029;-73
2023/05/10 02:21:25;;;;;;;21.13;19.65;;;11.50;99.90;;;;;;5224744;28;20028;-73
2023/05/10 02:23:58;;;;;;;21.10;19.67;;;11.60;99.90;;;;;;5228503;28;20365;-74
2023/05/10 02:26:30;;;;;;;21.98;20.45;;;11.60;99.90;;;;;;5229860;28;20469;-74
2023/05/10 02:29:03;;;;;;;22.45;20.77;;;11.60;99.90;;;;;;5229779;28;20033;-73
2023/05/10 02:31:35;;;;;;;22.48;20.98;;;11.60;99.90;;;;;;5229833;28;20036;-75
2023/05/10 02:34:08;;;;;;;23.30;21.30;;;11.70;99.90;;;;;;5229344;28;20407;-74
2023/05/10 02:36:41;;;;;;;23.38;21.50;;;11.60;99.90;;;;;;5229595;28;20043;-74
2023/05/10 02:39:13;;;;;;;23.98;22.17;;;11.60;99.90;;;;;;5229542;28;20041;-73
2023/05/10 02:41:46;;;;;;;23.00;21.30;;;11.60;99.90;;;;;;5228141;28;20037;-74
2023/05/10 02:44:19;;;;;;;23.73;22.13;;;11.60;99.90;;;;;;5228240;28;20033;-74
2023/05/10 02:46:50;;;;;;;26.35;24.42;;;11.60;99.90;;;;;;5229445;28;20124;-74
2023/05/10 02:49:21;;;;;;;26.17;24.08;;;11.60;99.90;;;;;;5229719;28;20485;-73
2023/05/10 02:51:57;;;;;;;26.90;24.88;;;11.60;99.90;;;;;;5229059;28;20175;-73
2023/05/10 02:54:33;;;;;;;24.38;22.67;;;11.60;99.90;;;;;;5227773;28;20169;-73
2023/05/10 02:57:06;;;;;;;23.85;22.17;;;11.70;99.90;;;;;;5229032;28;20039;-73
2023/05/10 02:59:37;;;;;;;22.70;21.17;;;11.60;99.90;;;;;;5229166;28;20114;-73
2023/05/10 03:02:08;;;;;;;23.00;21.40;;;11.60;99.90;;;;;;5227546;28;20079;-75
2023/05/10 03:04:39;;;;;;;23.33;21.60;;;11.60;99.90;;;;;;5228889;28;20035;-75
2023/05/10 03:07:10;;;;;;;23.00;21.25;;;11.70;99.90;;;;;;5228810;28;20021;-73
2023/05/10 03:09:41;;;;;;;21.88;20.17;;;11.60;99.90;;;;;;5228515;28;20538;-73
2023/05/10 03:12:18;;;;;;;24.77;22.67;;;11.70;99.90;;;;;;5228436;28;20114;-73
2023/05/10 03:15:28;;;;;;;22.08;20.48;;;11.60;99.90;;;;;;5227474;28;20146;-74
2023/05/10 03:18:09;;;;;;;23.75;22.15;;;11.60;99.90;;;;;;5228949;28;20025;-74
2023/05/10 03:20:57;;;;;;;21.73;20.10;;;11.60;99.90;;;;;;5228933;28;20025;-75
2023/05/10 03:23:34;;;;;;;22.65;20.95;;;11.60;99.90;;;;;;5228840;28;20384;-73
2023/05/10 03:26:05;;;;;;;23.45;21.75;;;11.60;99.90;;;;;;5227243;28;20033;-74
2023/05/10 03:28:37;;;;;;;22.42;20.73;;;11.60;99.90;;;;;;5228773;28;20029;-73
2023/05/10 03:31:09;;;;;;;24.67;23.08;;;11.60;99.90;;;;;;5228711;28;20033;-75
2023/05/10 03:33:50;;;;;;;22.63;20.92;;;11.70;99.90;;;;;;5228128;28;20036;-74
2023/05/10 03:36:21;;;;;;;24.70;22.85;;;11.70;99.90;;;;;;5227834;28;20041;-75
2023/05/10 03:38:52;;;;;;;24.73;22.92;;;11.70;99.90;;;;;;5226991;28;20052;-74
2023/05/10 03:41:22;;;;;;;26.10;23.88;;;11.70;99.90;;;;;;5228443;28;20044;-73
2023/05/10 03:43:53;;;;;;;23.52;22.13;;;11.70;99.90;;;;;;5228132;28;20029;-72
2023/05/10 03:46:24;;;;;;;23.88;21.98;;;11.80;99.90;;;;;;5227035;28;20021;-74
2023/05/10 03:48:55;;;;;;;25.50;23.80;;;11.80;99.90;;;;;;5228169;28;20025;-73
2023/05/10 03:51:28;;;;;;;25.05;23.45;;;11.80;99.90;;;;;;5228287;28;20032;-73
2023/05/10 03:53:58;;;;;;;25.42;23.80;;;11.80;99.90;;;;;;5228294;28;20481;-73
2023/05/10 03:56:29;;;;;;;24.67;22.95;;;11.80;99.90;;;;;;5227997;28;20025;-74
2023/05/10 03:59:00;;;;;;;24.73;23.02;;;11.80;99.90;;;;;;5227969;28;20037;-76
2023/05/10 04:01:31;;;;;;;22.85;21.48;;;11.90;99.90;;;;;;5227984;28;20025;-73
2023/05/10 04:04:02;;;;;;;25.58;23.95;;;11.90;99.90;;;;;;5227539;28;20041;-75
2023/05/10 04:06:33;;;;;;;24.58;22.88;;;11.90;99.90;;;;;;5227785;28;20021;-74
2023/05/10 04:09:04;;;;;;;25.73;23.35;;;11.90;99.90;;;;;;5227464;28;20053;-74
2023/05/10 04:11:35;;;;;;;24.75;22.92;;;11.90;99.90;;;;;;5227695;28;20025;-73
2023/05/10 04:14:06;;;;;;;26.13;24.27;;;11.90;99.90;;;;;;5227688;28;20043;-73
2023/05/10 04:16:36;;;;;;;27.10;25.38;;;11.90;99.90;;;;;;5227463;28;20147;-76
2023/05/10 04:19:07;;;;;;;27.25;25.23;;;11.90;99.90;;;;;;5226064;28;20036;-74
2023/05/10 04:21:38;;;;;;;26.75;25.05;;;11.90;99.90;;;;;;5227526;28;20044;-73
2023/05/10 04:24:09;;;;;;;28.65;26.35;;;12.00;99.90;;;;;;5227460;28;20032;-73
2023/05/10 04:26:40;;;;;;;28.73;26.73;;;12.00;99.90;;;;;;5227402;28;20029;-75
2023/05/10 04:29:11;;;;;;;30.02;27.98;;;12.10;99.90;;;;;;5227510;28;20021;-73
2023/05/10 04:31:42;;;;;;;29.48;27.48;;;12.00;99.90;;;;;;5227197;28;20160;-73
2023/05/10 04:34:13;;;;;;;30.48;28.05;;;12.00;99.90;;;;;;5227104;28;20049;-74
2023/05/10 04:36:44;;;;;;;28.33;26.50;;;11.90;99.90;;;;;;5227149;28;20021;-75
2023/05/10 04:39:15;;;;;;;29.20;27.10;;;12.10;99.90;;;;;;5226154;28;20606;-73
2023/05/10 04:41:45;;;;;;;26.42;24.52;;;12.10;99.90;;;;;;5227295;28;20108;-74
2023/05/10 04:44:16;;;;;;;27.95;26.02;;;12.10;99.90;;;;;;5227497;28;20372;-72
2023/05/10 04:46:47;;;;;;;24.65;23.02;;;12.10;99.90;;;;;;5227026;28;20212;-73
2023/05/10 04:49:18;;;;;;;27.60;25.70;;;12.20;99.90;;;;;;5227014;28;20530;-72
2023/05/10 04:51:49;;;;;;;27.98;26.08;;;12.20;99.90;;;;;;5226096;28;20142;-72
2023/05/10 04:54:20;;;;;;;28.25;26.35;;;12.20;99.90;;;;;;5225622;28;20036;-75
2023/05/10 04:56:51;;;;;;;27.25;25.65;;;12.20;99.90;;;;;;5225757;28;20040;-73
2023/05/10 04:59:21;;;;;;;28.35;26.58;;;12.30;99.90;;;;;;5226929;28;20044;-73
2023/05/10 05:01:52;;;;;;;27.15;25.45;;;12.30;99.90;;;;;;5225460;28;20018;-73
2023/05/10 05:04:23;;;;;;;29.85;27.85;;;12.30;99.90;;;;;;5226283;28;20029;-72
2023/05/10 05:06:55;;;;;;;30.98;28.98;;;12.40;99.90;;;;;;5226461;28;20040;-75
2023/05/10 05:09:25;;;;;;;29.88;27.90;;;12.40;99.90;;;;;;5226322;28;20045;-76
2023/05/10 05:11:56;;;;;;;27.73;25.80;;;12.40;99.90;;;;;;5226335;28;20028;-73
2023/05/10 05:14:27;;;;;;;28.10;26.33;;;12.40;99.90;;;;;;5225490;28;20044;-73
2023/05/10 05:16:58;;;;;;;29.35;27.42;;;12.60;99.90;;;;;;5226522;28;20472;-73
2023/05/10 05:19:31;;;;;;;27.88;25.98;;;12.50;99.90;;;;;;5226177;28;20095;-74
2023/05/10 05:22:02;;;;;;;27.67;25.77;;;12.50;99.90;;;;;;5226461;28;20029;-74
2023/05/10 05:24:37;;;;;;;31.83;29.48;;;12.50;99.90;;;;;;5226117;28;20049;-75
2023/05/10 05:27:08;;;;;;;28.83;26.85;;;12.50;99.90;;;;;;5226512;28;20075;-75
2023/05/10 05:29:39;;;;;;;30.10;28.10;;;12.50;99.90;;;;;;5226465;28;20420;-74
2023/05/10 05:32:10;;;;;;;28.80;26.83;;;12.60;99.90;;;;;;5226500;28;20385;-73
2023/05/10 05:34:41;;;;;;;27.67;25.90;;;12.60;99.90;;;;;;5226024;28;20124;-73
2023/05/10 05:37:16;;;;;;;31.30;28.98;;;12.60;99.90;;;;;;5224977;28;20116;-73
2023/05/10 05:39:48;;;;;;;31.00;28.88;;;12.60;99.90;;;;;;5226081;28;20091;-73
2023/05/10 05:42:19;;;;;;;29.70;27.88;;;12.60;99.90;;;;;;5226051;28;20060;-76
2023/05/10 05:44:49;;;;;;;31.13;28.80;;;12.70;99.90;;;;;;5225879;28;20072;-75
2023/05/10 05:47:20;;;;;;;29.05;26.65;;;12.60;99.90;;;;;;5226030;28;20414;-72
2023/05/10 05:49:51;;;;;;;31.58;29.48;;;12.70;99.90;;;;;;5224528;28;20120;-73
2023/05/10 05:52:22;;;;;;;31.48;29.23;;;12.80;99.90;;;;;;5224741;28;20473;-73
2023/05/10 05:54:53;;;;;;;33.75;31.25;;;13.00;99.90;;;;;;5225851;28;20037;-73
2023/05/10 05:57:24;;;;;;;31.23;29.45;;;12.90;99.90;;;;;;5226922;28;20414;-74
2023/05/10 05:59:55;;;;;;;34.13;32.03;;;12.90;99.90;;;;;;5230435;28;20460;-74
2023/05/10 06:02:25;;;;;;;31.92;29.90;;;13.00;99.90;;;;;;5230174;28;20096;-73
2023/05/10 06:04:56;;;;;;;29.05;27.25;;;12.90;99.90;;;;;;5229984;28;20378;-73
2023/05/10 06:07:27;;;;;;;28.55;26.60;;;12.90;99.90;;;;;;5230274;28;20026;-73
2023/05/10 06:09:58;;;;;;;30.00;28.10;;;13.00;99.90;;;;;;5229675;28;20053;-72
2023/05/10 06:12:29;;;;;;;29.83;27.95;;;13.00;99.90;;;;;;5229718;28;20040;-72
2023/05/10 06:15:00;;;;;;;30.05;27.63;;;13.00;99.90;;;;;;5229966;28;20069;-73
2023/05/10 06:17:30;;;;;;;31.50;29.30;;;13.00;99.90;;;;;;5228551;28;20428;-76
2023/05/10 06:20:01;;;;;;;32.15;29.95;;;13.00;99.90;;;;;;5229823;28;20380;-73
2023/05/10 06:22:32;;;;;;;29.35;27.08;;;12.90;99.90;;;;;;5229633;28;20083;-74
2023/05/10 06:25:03;;;;;;;26.58;24.65;;;12.70;99.90;;;;;;5229810;28;20035;-73
2023/05/10 06:27:34;;;;;;;29.33;27.23;;;12.60;99.90;;;;;;5229654;28;20128;-75
2023/05/10 06:30:06;;;;;;;29.65;27.63;;;12.70;99.90;;;;;;5229802;28;20483;-74
2023/05/10 06:32:37;;;;;;;28.13;26.02;;;12.70;99.90;;;;;;5229509;28;20021;-76
2023/05/10 06:35:08;;;;;;;29.90;27.55;;;12.60;99.90;;;;;;5229491;28;20519;-73
2023/05/10 06:37:39;;;;;;;31.48;29.17;;;12.60;99.90;;;;;;5228067;28;20017;-72
2023/05/10 06:40:10;;;;;;;30.48;28.05;;;12.60;99.90;;;;;;5229564;28;20037;-75
2023/05/10 06:42:41;;;;;;;29.85;27.92;;;12.70;99.90;;;;;;5228051;28;20082;-73
2023/05/10 06:45:13;;;;;;;27.70;25.50;;;12.60;99.90;;;;;;5229384;28;20029;-72
2023/05/10 06:47:43;;;;;;;25.80;24.02;;;12.60;99.90;;;;;;5229227;28;20453;-74
2023/05/10 06:50:14;;;;;;;27.30;25.42;;;12.60;99.90;;;;;;5228725;28;20108;-75
2023/05/10 06:52:45;;;;;;;25.60;24.05;;;12.60;99.90;;;;;;5229350;28;20029;-74
2023/05/10 06:55:16;;;;;;;25.20;23.55;;;12.70;99.90;;;;;;5229031;28;20090;-72
2023/05/10 06:57:47;;;;;;;25.70;23.88;;;12.80;99.90;;;;;;5229157;28;20013;-73
2023/05/10 07:00:19;;;;;;;27.02;24.92;;;12.90;99.90;;;;;;5227664;28;20082;-72
2023/05/10 07:02:49;;;;;;;25.95;23.98;;;13.10;99.90;;;;;;5229029;28;20107;-74
2023/05/10 07:05:21;;;;;;;25.00;23.23;;;13.10;99.90;;;;;;5229106;28;20096;-73
2023/05/10 07:07:52;;;;;;;24.23;22.70;;;13.50;99.90;;;;;;5227729;28;20489;-73
2023/05/10 07:10:22;;;;;;;23.42;21.92;;;13.60;99.90;;;;;;5226659;28;20187;-72
2023/05/10 07:12:53;;;;;;;24.40;22.73;;;13.40;99.90;;;;;;5229212;28;20025;-73
2023/05/10 07:15:24;;;;;;;22.98;21.45;;;13.60;99.90;;;;;;5228720;28;20049;-74
2023/05/10 07:17:55;;;;;;;23.90;22.27;;;13.60;99.90;;;;;;5227509;28;20112;-75
2023/05/10 07:20:26;;;;;;;25.40;23.27;;;13.70;99.90;;;;;;5228715;28;20439;-74
2023/05/10 07:22:57;;;;;;;25.20;23.48;;;13.60;99.90;;;;;;5229062;28;20450;-73
2023/05/10 07:25:28;;;;;;;24.05;22.27;;;13.70;99.90;;;;;;5228773;28;20025;-73
2023/05/10 07:27:58;;;;;;;22.70;21.20;;;13.70;99.90;;;;;;5227723;28;20052;-73
2023/05/10 07:30:30;;;;;;;25.35;23.65;;;13.70;99.90;;;;;;5228836;28;20082;-74
2023/05/10 07:33:01;;;;;;;25.45;23.70;;;13.70;99.90;;;;;;5227201;28;20021;-75
2023/05/10 07:35:32;;;;;;;23.55;21.90;;;13.60;99.90;;;;;;5228561;28;20037;-75
2023/05/10 07:38:03;;;;;;;24.75;23.00;;;13.70;99.90;;;;;;5228558;28;20427;-73
2023/05/10 07:40:34;;;;;;;25.63;23.75;;;13.80;99.90;;;;;;5228656;28;20132;-73
2023/05/10 07:43:05;;;;;;;26.90;25.15;;;13.70;99.90;;;;;;5227375;28;20021;-75
2023/05/10 07:45:36;;;;;;;25.67;23.95;;;13.70;99.90;;;;;;5228216;28;20048;-72
2023/05/10 07:48:06;;;;;;;25.05;23.40;;;14.10;99.90;;;;;;5227047;28;20116;-73
2023/05/10 07:50:37;;;;;;;27.00;25.27;;;14.30;99.90;;;;;;5226946;28;20120;-74
2023/05/10 07:53:08;;;;;;;28.83;26.63;;;14.10;99.90;;;;;;5228136;28;20031;-74
2023/05/10 07:55:39;;;;;;;29.27;27.40;;;13.90;99.90;;;;;;5228130;28;20029;-73
2023/05/10 07:58:10;;;;;;;30.73;28.73;;;13.80;99.90;;;;;;5226928;28;20024;-74
2023/05/10 08:00:41;;;;;;;32.40;30.40;;;13.90;99.90;;;;;;5228057;28;20074;-73
2023/05/10 08:03:11;;;;;;;30.27;28.50;;;13.80;99.90;;;;;;5226752;28;20028;-73
2023/05/10 08:05:42;;;;;;;34.00;32.05;;;14.00;99.90;;;;;;5227952;28;20460;-72
2023/05/10 08:08:13;;;;;;;31.48;29.40;;;13.90;99.90;;;;;;5227407;28;20057;-73
2023/05/10 08:10:44;;;;;;;33.65;31.35;;;13.80;99.90;;;;;;5227967;28;20091;-76
2023/05/10 08:13:15;;;;;;;34.05;31.83;;;13.80;99.90;;;;;;5227362;28;20025;-73
2023/05/10 08:15:47;;;;;;;38.83;35.95;;;13.80;99.90;;;;;;5227670;28;20104;-73
2023/05/10 08:18:17;;;;;;;34.95;32.78;;;14.00;99.90;;;;;;5227560;28;20033;-73
2023/05/10 08:20:48;;;;;;;30.95;29.02;;;14.50;99.90;;;;;;5226939;28;20551;-74
2023/05/10 08:23:19;;;;;;;47.70;29.02;;;14.30;99.90;;;;;;5227795;28;20029;-73
2023/05/10 08:25:50;;;;;;;26.08;24.50;;;14.30;99.90;;;;;;5227583;28;20029;-74
2023/05/10 08:28:21;;;;;;;22.35;20.75;;;14.30;99.90;;;;;;5227649;28;20082;-74
2023/05/10 08:30:52;;;;;;;24.92;23.13;;;14.40;99.90;;;;;;5226184;28;20055;-73
2023/05/10 08:33:23;;;;;;;20.20;18.73;;;14.70;99.90;;;;;;5227115;28;20488;-72
2023/05/10 08:35:53;;;;;;;20.88;19.30;;;14.50;99.90;;;;;;5227365;28;20025;-73
2023/05/10 08:38:25;;;;;;;22.27;20.63;;;14.30;99.90;;;;;;5225967;28;20064;-74
2023/05/10 08:40:56;;;;;;;20.75;19.33;;;14.40;99.90;;;;;;5227386;28;20029;-75
2023/05/10 08:43:29;;;;;;;22.67;21.08;;;14.30;99.90;;;;;;5227195;28;20026;-73
2023/05/10 08:46:02;;;;;;;26.05;24.05;;;14.20;99.90;;;;;;5227157;28;20032;-75
2023/05/10 08:48:34;;;;;;;25.25;23.50;;;14.20;99.90;;;;;;5226926;28;20480;-72
2023/05/10 08:51:06;;;;;;;23.77;21.98;;;14.50;99.90;;;;;;5225875;28;20025;-73
2023/05/10 08:53:37;;;;;;;22.20;20.70;;;14.30;99.90;;;;;;5225603;28;20090;-75
2023/05/10 08:56:08;;;;;;;23.17;21.63;;;14.10;99.90;;;;;;5227100;28;20412;-74
2023/05/10 08:58:39;;;;;;;23.92;22.30;;;13.90;99.90;;;;;;5226747;28;20025;-72
2023/05/10 09:01:10;;;;;;;23.52;21.92;;;13.80;99.90;;;;;;5226748;28;20025;-73
2023/05/10 09:03:41;;;;;;;28.27;26.38;;;13.70;99.90;;;;;;5226737;28;20024;-73
2023/05/10 09:06:13;;;;;;;30.13;28.10;;;13.90;99.90;;;;;;5226683;28;20037;-74
2023/05/10 09:08:45;;;;;;;29.52;27.33;;;13.90;99.90;;;;;;5226351;28;20071;-75
2023/05/10 09:11:17;;;;;;;28.95;26.58;;;13.90;99.90;;;;;;5226815;28;20362;-73
2023/05/10 09:13:51;;;;;;;29.60;27.77;;;13.80;99.90;;;;;;5226536;28;20017;-74
2023/05/10 09:16:23;;;;;;;29.75;27.85;;;14.00;99.90;;;;;;5224991;28;20037;-73
2023/05/10 09:18:54;;;;;;;27.05;25.05;;;13.90;99.90;;;;;;5226529;28;20009;-75
2023/05/10 09:21:25;;;;;;;28.15;26.30;;;14.00;99.90;;;;;;5226181;28;20562;-75
2023/05/10 09:23:56;;;;;;;26.90;24.92;;;14.10;99.90;;;;;;5226467;28;20017;-73
2023/05/10 09:26:27;;;;;;;26.83;25.05;;;14.10;99.90;;;;;;5225960;28;20361;-73
2023/05/10 09:28:59;;;;;;;30.52;28.33;;;14.00;99.90;;;;;;5225049;28;20063;-73
2023/05/10 09:31:51;;;;;;;30.40;28.30;;;14.00;99.90;;;;;;5226489;28;20060;-74
2023/05/10 09:34:34;;;;;;;31.15;28.67;;;14.00;99.90;;;;;;5225901;28;20385;-73
2023/05/10 09:37:05;;;;;;;33.63;30.98;;;13.80;99.90;;;;;;5226645;28;20433;-76
2023/05/10 09:39:37;;;;;;;29.27;27.33;;;13.70;99.90;;;;;;5226293;28;20394;-73
2023/05/10 09:42:10;;;;;;;29.15;27.20;;;14.00;99.90;;;;;;5225000;28;20028;-73
2023/05/10 09:44:43;;;;;;;28.90;27.13;;;14.10;99.90;;;;;;5226228;28;20063;-74
2023/05/10 09:47:18;;;;;;;26.25;24.45;;;14.00;99.90;;;;;;5226081;28;20112;-73
2023/05/10 09:49:51;;;;;;;25.50;23.65;;;14.00;99.90;;;;;;5226089;28;20493;-73
2023/05/10 09:52:21;;;;;;;27.15;25.25;;;13.90;99.90;;;;;;5225869;28;20021;-73
2023/05/10 09:54:53;;;;;;;26.98;25.17;;;14.10;99.90;;;;;;5224629;28;20033;-74
2023/05/10 09:57:25;;;;;;;24.33;22.70;;;14.00;99.90;;;;;;5225030;28;20431;-75
2023/05/10 09:59:58;;;;;;;25.25;23.48;;;14.10;99.90;;;;;;5226052;28;20104;-74
2023/05/10 10:02:29;;;;;;;25.73;23.67;;;14.10;99.90;;;;;;5225961;28;20028;-73
2023/05/10 10:05:02;;;;;;;24.98;23.02;;;14.30;99.90;;;;;;5226001;28;20021;-75
2023/05/10 10:07:35;;;;;;;21.52;20.00;;;14.60;99.90;;;;;;5225969;28;20584;-73
2023/05/10 10:10:11;;;;;;;22.27;20.90;;;14.70;99.90;;;;;;5225820;28;20052;-73
2023/05/10 10:12:42;;;;;;;25.45;23.73;;;14.70;99.90;;;;;;5225907;28;20017;-72
2023/05/10 10:15:13;;;;;;;27.15;25.45;;;14.70;99.90;;;;;;5224562;28;20358;-73
2023/05/10 10:17:45;;;;;;;23.77;22.17;;;14.60;99.90;;;;;;5225752;28;20104;-75
2023/05/10 10:20:17;;;;;;;24.90;23.15;;;14.70;99.90;;;;;;5225833;28;20400;-73
2023/05/10 10:22:48;;;;;;;25.58;23.92;;;14.80;99.90;;;;;;5225672;28;20048;-74
2023/05/10 10:25:23;;;;;;;25.70;23.92;;;14.70;99.90;;;;;;5225672;28;20444;-75
2023/05/10 10:27:54;;;;;;;24.98;23.00;;;14.40;99.90;;;;;;5226022;28;20594;-74
2023/05/10 10:30:50;;;;;;;23.98;22.48;;;14.20;99.90;;;;;;5225779;28;20029;-73
2023/05/10 10:33:40;;;;;;;23.05;21.20;;;14.40;99.90;;;;;;5225495;28;20035;-73
2023/05/10 10:36:13;;;;;;;23.70;21.65;;;14.60;99.90;;;;;;5225826;28;20039;-73
2023/05/10 10:38:46;;;;;;;25.73;23.83;;;14.30;99.90;;;;;;5225826;28;20037;-73
2023/05/10 10:41:57;;;;;;;23.95;22.08;;;14.30;99.90;;;;;;5225818;28;20029;-73
2023/05/10 10:44:31;;;;;;;;;;;14.20;99.90;;;;;;5225500;28;20041;-74
2023/05/10 10:47:12;;;;;;;26.60;24.65;;;14.40;99.90;;;;;;5229775;28;19912;-72
2023/05/10 10:49:48;;;;;;;26.40;24.80;;;14.60;99.90;;;;;;5228189;28;20025;-72
2023/05/10 10:52:36;;;;;;;25.05;23.35;;;14.70;99.90;;;;;;5228202;28;20029;-72
2023/05/10 10:55:18;;;;;;;27.33;25.55;;;14.60;99.90;;;;;;5229058;28;20037;-72
2023/05/10 10:57:51;;;;;;;23.95;22.42;;;14.80;99.90;;;;;;5228067;28;20025;-73
2023/05/10 11:00:36;;;;;;;23.38;21.88;;;14.70;99.90;;;;;;5229254;28;20532;-72
2023/05/10 11:03:13;;;;;;;24.60;23.10;;;14.90;99.90;;;;;;5227874;28;20078;-73
2023/05/10 11:05:45;;;;;;;25.80;24.02;;;15.00;99.90;;;;;;5229207;28;20033;-73
2023/05/10 11:08:29;;;;;;;23.77;22.08;;;15.00;99.90;;;;;;5228799;28;20103;-74
2023/05/10 11:11:00;;;;;;;25.85;24.08;;;14.90;99.90;;;;;;5229148;28;20385;-74
2023/05/10 11:13:40;;;;;;;25.63;23.67;;;14.80;99.90;;;;;;5229040;28;20075;-73
2023/05/10 11:16:21;;;;;;;24.65;22.77;;;14.80;99.90;;;;;;5228908;28;20030;-73
2023/05/10 11:19:03;;;;;;;23.52;21.90;;;14.90;99.90;;;;;;5228890;28;20408;-74
2023/05/10 11:21:48;;;;;;;22.60;20.85;;;14.80;99.90;;;;;;5228905;28;20465;-76
2023/05/10 11:24:22;;;;;;;23.05;21.48;;;15.00;99.90;;;;;;5228678;28;20621;-73
2023/05/10 11:26:54;;;;;;;24.15;22.38;;;14.80;99.90;;;;;;5228693;28;20793;-76
2023/05/10 11:29:26;;;;;;;23.88;22.27;;;14.70;99.90;;;;;;5228374;28;20456;-74
2023/05/10 11:31:58;;;;;;;24.33;22.60;;;14.70;99.90;;;;;;5228509;28;20061;-73
2023/05/10 11:34:33;;;;;;;23.08;21.50;;;14.80;99.90;;;;;;5228149;28;20029;-74
2023/05/10 11:37:04;;;;;;;23.08;21.52;;;14.70;99.90;;;;;;5227052;28;20039;-74
2023/05/10 11:39:34;;;;;;;22.33;20.58;;;15.00;99.90;;;;;;5228230;28;20017;-74
2023/05/10 11:42:08;;;;;;;25.02;23.05;;;14.70;99.90;;;;;;5228375;28;20043;-73
2023/05/10 11:44:40;;;;;;;23.85;22.02;;;14.60;99.90;;;;;;5228576;28;20017;-75
2023/05/10 11:47:12;;;;;;;22.40;20.85;;;14.70;99.90;;;;;;5228412;28;20021;-73
2023/05/10 11:49:47;;;;;;;24.70;22.77;;;14.80;99.90;;;;;;5227085;28;20112;-73
2023/05/10 11:52:19;;;;;;;24.17;22.42;;;14.80;99.90;;;;;;5227067;28;20029;-73
2023/05/10 11:54:54;;;;;;;23.67;21.98;;;14.90;99.90;;;;;;5228006;28;20037;-74
2023/05/10 11:57:28;;;;;;;23.20;21.60;;;14.90;99.90;;;;;;5226681;28;20035;-74
2023/05/10 11:59:59;;;;;;;21.33;19.40;;;14.70;99.90;;;;;;5227021;28;20126;-73
2023/05/10 12:02:30;;;;;;;21.60;20.00;;;14.50;99.90;;;;;;5228352;28;20503;-75
2023/05/10 12:05:02;;;;;;;20.48;18.83;;;14.60;99.90;;;;;;5228007;28;20128;-73
2023/05/10 12:07:33;;;;;;;21.98;20.20;;;14.30;99.90;;;;;;5226443;28;20051;-73
2023/05/10 12:10:10;;;;;;;20.38;18.60;;;14.50;99.90;;;;;;5226500;28;20463;-74
2023/05/10 12:12:45;;;;;;;21.73;20.10;;;14.30;99.90;;;;;;5226797;28;20032;-74
2023/05/10 12:15:20;;;;;;;24.98;22.90;;;14.00;99.90;;;;;;5227750;28;20089;-75
2023/05/10 12:17:51;;;;;;;24.65;22.75;;;14.00;99.90;;;;;;5226627;28;20036;-75
2023/05/10 12:20:24;;;;;;;26.10;24.00;;;13.90;99.90;;;;;;5227733;28;20028;-73
2023/05/10 12:22:57;;;;;;;26.70;24.55;;;14.10;99.90;;;;;;5226578;28;20488;-74
2023/05/10 12:25:33;;;;;;;27.45;25.60;;;14.10;99.90;;;;;;5227693;28;20377;-74
2023/05/10 12:28:08;;;;;;;27.63;25.63;;;14.10;99.90;;;;;;5227746;28;20021;-75
2023/05/10 12:30:39;;;;;;;29.98;27.77;;;14.10;99.90;;;;;;5227352;28;20033;-73
2023/05/10 12:33:12;;;;;;;26.10;24.20;;;14.40;99.90;;;;;;5226288;28;20048;-73
2023/05/10 12:35:46;;;;;;;25.23;23.38;;;14.10;99.90;;;;;;5225879;28;20033;-74
2023/05/10 12:38:34;;;;;;;26.08;23.98;;;14.10;99.90;;;;;;5226159;28;20033;-73
2023/05/10 12:41:10;;;;;;;25.38;23.63;;;14.10;99.90;;;;;;5227148;28;20040;-74
2023/05/10 12:43:41;;;;;;;24.88;23.10;;;14.30;99.90;;;;;;5227026;28;20116;-74
2023/05/10 12:46:17;;;;;;;25.15;23.10;;;14.10;99.90;;;;;;5225730;28;20025;-73
2023/05/10 12:48:54;;;;;;;25.45;23.42;;;13.90;99.90;;;;;;5227172;28;20115;-75
2023/05/10 12:51:25;;;;;;;25.08;23.23;;;14.10;99.90;;;;;;5227087;28;20025;-76
2023/05/10 12:53:56;;;;;;;25.17;23.20;;;14.10;99.90;;;;;;5226699;28;20362;-74
2023/05/10 12:56:26;;;;;;;25.98;23.75;;;14.20;99.90;;;;;;5226895;28;20584;-73
2023/05/10 12:58:57;;;;;;;25.30;23.15;;;14.30;99.90;;;;;;5226927;28;20083;-73